createdAt,value
2016-07-16T06:46:06.664Z,15
2016-07-16T06:46:29.214Z,15
2016-07-16T06:46:40.068Z,15
2016-07-16T06:46:59.495Z,15
2016-07-16T06:47:22.049Z,15
2016-07-16T06:47:34.350Z,15
2016-07-16T06:47:51.032Z,15
2016-07-16T06:48:01.924Z,15
2016-07-16T06:48:24.679Z,15
2016-07-16T06:48:47.249Z,15
2016-07-16T06:49:05.038Z,15
2016-07-16T06:49:25.703Z,16
2016-07-16T06:49:39.822Z,15
2016-07-16T06:49:54.208Z,16
2016-07-16T06:50:12.247Z,16
2016-07-16T06:50:34.765Z,16
2016-07-16T06:50:57.440Z,16
2016-07-16T06:51:18.638Z,16
2016-07-16T06:51:38.222Z,16
2016-07-16T06:51:58.379Z,16
2016-07-16T06:52:12.319Z,16
2016-07-16T06:52:31.966Z,16
2016-07-16T06:52:45.732Z,16
2016-07-16T06:52:59.742Z,16
2016-07-16T06:53:23.368Z,15
2016-07-16T06:53:40.203Z,15
2016-07-16T06:54:02.750Z,16
2016-07-16T06:54:28.458Z,15
2016-07-16T06:54:48.117Z,15
2016-07-16T06:55:10.673Z,16
2016-07-16T06:55:27.646Z,16
2016-07-16T06:55:44.608Z,16
2016-07-16T06:56:01.348Z,15
2016-07-16T06:56:22.232Z,16
2016-07-16T06:56:42.244Z,16
2016-07-16T06:56:59.434Z,15
2016-07-16T06:57:19.585Z,16
2016-07-16T06:57:42.148Z,16
2016-07-16T06:58:01.755Z,16
2016-07-16T06:58:21.844Z,16
2016-07-16T06:58:35.777Z,16
2016-07-16T06:58:55.632Z,15
2016-07-16T06:59:20.388Z,16
2016-07-16T06:59:32.437Z,16
2016-07-16T06:59:54.935Z,16
2016-07-16T07:00:11.681Z,16
2016-07-16T07:00:32.719Z,16
2016-07-16T07:00:49.528Z,16
2016-07-16T07:01:03.790Z,16
2016-07-16T07:01:23.614Z,16
2016-07-16T07:01:40.382Z,16
2016-07-16T07:02:00.306Z,16
2016-07-16T07:02:12.075Z,16
2016-07-16T07:02:28.716Z,16
2016-07-16T07:02:42.407Z,16
2016-07-16T07:02:56.455Z,16
2016-07-16T07:03:10.337Z,16
2016-07-16T07:03:32.843Z,16
2016-07-16T07:03:46.626Z,16
2016-07-16T07:04:09.297Z,16
2016-07-16T07:04:26.823Z,16
2016-07-16T07:04:49.499Z,16
2016-07-16T07:05:09.035Z,16
2016-07-16T07:05:23.781Z,16
2016-07-16T07:05:38.056Z,16
2016-07-16T07:05:56.065Z,16
2016-07-16T07:06:15.502Z,16
2016-07-16T07:06:38.223Z,16
2016-07-16T07:06:52.190Z,16
2016-07-16T07:07:11.978Z,16
2016-07-16T07:07:26.143Z,16
2016-07-16T07:07:48.758Z,16
2016-07-16T07:08:05.683Z,16
2016-07-16T07:08:17.947Z,16
2016-07-16T07:08:37.787Z,16
2016-07-16T07:08:57.471Z,16
2016-07-16T07:09:08.580Z,16
2016-07-16T07:09:31.935Z,16
2016-07-16T07:09:55.130Z,16
2016-07-16T07:10:18.805Z,16
2016-07-16T07:10:35.566Z,16
2016-07-16T07:10:49.351Z,16
2016-07-16T07:11:08.913Z,16
2016-07-16T07:11:25.720Z,16
2016-07-16T07:11:43.137Z,16
2016-07-16T07:11:54.319Z,16
2016-07-16T07:12:11.976Z,16
2016-07-16T07:12:38.831Z,16
2016-07-16T07:12:58.891Z,16
2016-07-16T07:13:13.861Z,16
2016-07-16T07:13:31.128Z,16
2016-07-16T07:13:42.741Z,16
2016-07-16T07:13:59.778Z,16
2016-07-16T07:14:19.749Z,16
2016-07-16T07:14:36.574Z,16
2016-07-16T07:14:53.496Z,16
2016-07-16T07:15:10.213Z,16
2016-07-16T07:15:27.618Z,16
2016-07-16T07:15:50.418Z,16
2016-07-16T07:16:04.923Z,16
2016-07-16T07:16:22.572Z,16
2016-07-16T07:16:42.332Z,16
2016-07-16T07:17:04.926Z,16
2016-07-16T07:17:18.737Z,16
2016-07-16T07:17:38.358Z,16
2016-07-16T07:17:55.148Z,16
2016-07-16T07:18:11.947Z,16
2016-07-16T07:18:28.268Z,16
2016-07-16T07:18:45.477Z,16
2016-07-16T07:18:56.594Z,16
2016-07-16T07:19:13.382Z,16
2016-07-16T08:45:25.219Z,17
2016-07-16T08:45:48.777Z,17
2016-07-16T08:46:03.020Z,17
2016-07-16T08:46:17.024Z,17
2016-07-16T08:46:39.766Z,17
2016-07-16T08:46:56.905Z,17
2016-07-16T08:47:11.056Z,17
2016-07-16T08:47:25.021Z,17
2016-07-16T08:47:45.424Z,17
2016-07-16T08:48:08.129Z,17
2016-07-16T08:48:28.187Z,17
2016-07-16T08:48:52.141Z,17
2016-07-16T08:49:18.070Z,17
2016-07-16T08:49:33.500Z,17
2016-07-16T08:49:53.462Z,17
2016-07-16T08:50:15.146Z,17
2016-07-16T08:50:31.117Z,17
2016-07-16T08:50:50.991Z,17
2016-07-16T08:51:10.813Z,17
2016-07-16T08:51:33.364Z,17
2016-07-16T08:51:52.876Z,17
2016-07-16T08:52:15.970Z,17
2016-07-16T08:52:30.908Z,17
2016-07-16T08:52:53.347Z,17
2016-07-16T08:53:13.178Z,17
2016-07-16T08:53:26.932Z,17
2016-07-16T08:53:47.389Z,17
2016-07-16T08:54:06.798Z,17
2016-07-16T08:54:26.343Z,17
2016-07-16T08:54:50.116Z,17
2016-07-16T08:55:06.902Z,17
2016-07-16T08:55:29.124Z,17
2016-07-16T08:55:45.701Z,17
2016-07-16T08:55:56.829Z,17
2016-07-16T08:56:10.573Z,17
2016-07-16T08:56:35.939Z,17
2016-07-16T08:56:50.099Z,17
2016-07-16T08:57:12.976Z,17
2016-07-16T08:57:33.249Z,17
2016-07-16T08:57:58.353Z,17
2016-07-16T08:58:16.157Z,17
2016-07-16T08:58:26.704Z,17
2016-07-16T08:58:51.994Z,17
2016-07-16T08:59:14.500Z,17
2016-07-16T08:59:34.003Z,17
2016-07-16T08:59:51.030Z,18
2016-07-16T09:00:10.496Z,18
2016-07-16T09:00:29.994Z,18
2016-07-16T09:00:52.515Z,17
2016-07-16T09:01:17.917Z,18
2016-07-16T09:01:28.830Z,18
2016-07-16T09:01:42.464Z,18
2016-07-16T09:01:59.314Z,18
2016-07-16T09:02:15.722Z,18
2016-07-16T09:02:35.229Z,18
2016-07-16T09:02:54.999Z,18
2016-07-16T09:03:14.580Z,18
2016-07-16T09:03:31.092Z,18
2016-07-16T09:03:51.738Z,18
2016-07-16T09:04:08.540Z,18
2016-07-16T09:04:28.640Z,18
2016-07-16T09:04:48.094Z,18
2016-07-16T09:05:07.764Z,18
2016-07-16T09:05:24.349Z,18
2016-07-16T09:05:38.093Z,18
2016-07-16T09:05:52.409Z,18
2016-07-16T09:06:14.190Z,18
2016-07-16T09:06:33.844Z,18
2016-07-16T09:06:47.335Z,17
2016-07-16T09:07:01.219Z,17
2016-07-16T09:07:23.530Z,17
2016-07-16T09:07:43.137Z,17
2016-07-16T09:07:59.745Z,18
2016-07-16T09:08:16.251Z,18
2016-07-16T09:08:35.780Z,18
2016-07-16T09:08:49.674Z,18
2016-07-16T09:09:00.324Z,18
2016-07-16T09:09:17.181Z,18
2016-07-16T09:09:37.783Z,18
2016-07-16T09:09:54.551Z,18
2016-07-16T09:10:11.213Z,18
2016-07-16T09:10:28.119Z,18
2016-07-16T09:10:47.799Z,18
2016-07-16T09:11:02.081Z,18
2016-07-16T09:11:16.180Z,18
2016-07-16T09:11:32.980Z,17
2016-07-16T09:11:53.821Z,17
2016-07-16T09:12:17.559Z,17
2016-07-16T09:12:40.056Z,17
2016-07-16T09:12:59.528Z,17
2016-07-16T09:13:10.544Z,17
2016-07-16T09:13:32.912Z,17
2016-07-16T09:13:49.311Z,17
2016-07-16T09:14:08.837Z,17
2016-07-16T09:14:25.287Z,17
2016-07-16T09:14:44.913Z,17
2016-07-16T09:15:02.729Z,17
2016-07-16T09:15:19.519Z,18
2016-07-16T09:15:39.078Z,18
2016-07-16T09:16:05.844Z,18
2016-07-16T09:16:22.810Z,18
2016-07-16T09:16:42.356Z,18
2016-07-16T09:16:59.229Z,18
2016-07-16T09:17:18.862Z,18
2016-07-16T09:17:41.453Z,18
2016-07-16T09:18:06.881Z,18
2016-07-16T09:18:26.251Z,18
2016-07-16T09:18:45.598Z,18
2016-07-16T09:19:04.951Z,18
2016-07-16T09:19:22.592Z,18
2016-07-16T09:19:42.100Z,18
2016-07-16T09:20:01.672Z,18
2016-07-16T09:20:16.137Z,18
2016-07-16T09:20:32.859Z,18
2016-07-16T09:20:53.544Z,18
2016-07-16T09:21:10.078Z,18
2016-07-16T09:21:29.819Z,18
2016-07-16T09:21:52.369Z,18
2016-07-16T09:22:11.863Z,18
2016-07-16T09:22:34.313Z,18
2016-07-16T09:22:50.990Z,18
2016-07-16T09:23:07.707Z,18
2016-07-16T09:23:30.177Z,18
2016-07-16T09:23:43.885Z,18
2016-07-16T09:24:06.449Z,18
2016-07-16T09:24:23.393Z,18
2016-07-16T09:24:37.160Z,18
2016-07-16T09:24:47.995Z,18
2016-07-16T09:25:01.710Z,18
2016-07-16T09:25:18.346Z,18
2016-07-16T09:25:38.085Z,18
2016-07-16T09:25:57.789Z,18
2016-07-16T09:26:20.305Z,18
2016-07-16T09:26:36.955Z,18
2016-07-16T09:26:50.890Z,18
2016-07-16T09:27:07.800Z,18
2016-07-16T09:27:24.571Z,18
2016-07-16T09:27:44.110Z,18
2016-07-16T09:27:58.049Z,18
2016-07-16T09:28:11.764Z,18
2016-07-16T09:28:28.616Z,18
2016-07-16T09:28:51.160Z,18
2016-07-16T09:29:04.991Z,18
2016-07-16T09:29:28.465Z,18
2016-07-16T09:29:42.442Z,18
2016-07-16T09:29:56.785Z,18
2016-07-16T09:30:13.723Z,18
2016-07-16T09:30:33.250Z,18
2016-07-16T09:30:47.039Z,18
2016-07-16T09:31:00.858Z,18
2016-07-16T09:31:17.361Z,18
2016-07-16T09:31:33.793Z,18
2016-07-16T09:31:56.127Z,18
2016-07-16T09:32:21.617Z,18
2016-07-16T09:32:35.294Z,18
2016-07-16T09:32:48.926Z,18
2016-07-16T09:33:05.844Z,18
2016-07-16T09:33:16.965Z,18
2016-07-16T09:33:36.558Z,18
2016-07-16T09:33:53.332Z,18
2016-07-16T09:34:10.234Z,18
2016-07-16T09:34:27.090Z,18
2016-07-16T09:34:46.859Z,18
2016-07-16T09:35:03.294Z,18
2016-07-16T09:35:23.803Z,18
2016-07-16T09:35:43.739Z,18
2016-07-16T09:36:03.396Z,18
2016-07-16T09:36:23.244Z,18
2016-07-16T09:36:40.027Z,18
2016-07-16T09:37:00.708Z,18
2016-07-16T09:37:14.610Z,18
2016-07-16T09:37:33.925Z,18
2016-07-16T09:37:50.730Z,18
2016-07-16T09:38:10.338Z,18
2016-07-16T09:38:24.088Z,18
2016-07-16T09:38:47.243Z,18
2016-07-16T09:39:06.680Z,18
2016-07-16T09:39:21.010Z,18
2016-07-16T09:39:32.651Z,18
2016-07-16T09:39:49.512Z,18
2016-07-16T09:40:12.101Z,18
2016-07-16T09:40:31.649Z,18
2016-07-16T09:40:55.010Z,18
2016-07-16T09:41:11.595Z,18
2016-07-16T09:41:34.056Z,18
2016-07-16T09:41:50.744Z,18
2016-07-16T09:42:18.508Z,18
2016-07-16T09:42:38.178Z,18
2016-07-16T09:42:57.784Z,18
2016-07-16T09:43:08.648Z,18
2016-07-16T09:43:25.382Z,18
2016-07-16T09:43:52.744Z,18
2016-07-16T09:44:09.454Z,18
2016-07-16T09:44:23.096Z,18
2016-07-16T09:44:36.866Z,18
2016-07-16T09:44:50.785Z,18
2016-07-16T09:45:10.162Z,18
2016-07-16T09:45:27.442Z,18
2016-07-16T09:45:44.197Z,18
2016-07-16T09:45:58.265Z,18
2016-07-16T09:46:09.411Z,18
2016-07-16T09:46:30.405Z,18
2016-07-16T09:46:47.394Z,18
2016-07-16T09:47:05.339Z,18
2016-07-16T09:47:22.303Z,18
2016-07-16T09:47:42.197Z,18
2016-07-16T09:48:03.516Z,18
2016-07-16T09:48:19.550Z,18
2016-07-16T09:48:36.581Z,18
2016-07-16T09:48:59.397Z,18
2016-07-16T09:49:19.679Z,18
2016-07-16T09:49:34.118Z,18
2016-07-16T09:49:51.388Z,18
2016-07-16T09:50:08.536Z,18
2016-07-16T09:50:22.453Z,18
2016-07-16T09:50:39.493Z,18
2016-07-16T09:50:53.510Z,18
2016-07-16T09:51:17.887Z,18
2016-07-16T09:51:37.800Z,18
2016-07-16T09:51:57.666Z,18
2016-07-16T09:52:23.355Z,18
2016-07-16T09:52:40.497Z,18
2016-07-16T09:52:54.728Z,18
2016-07-16T09:53:14.575Z,18
2016-07-16T09:53:31.656Z,18
2016-07-16T09:53:54.415Z,18
2016-07-16T09:54:15.615Z,18
2016-07-16T09:54:29.625Z,18
2016-07-16T09:54:40.839Z,18
2016-07-16T09:54:54.997Z,18
2016-07-16T09:55:09.259Z,18
2016-07-16T09:55:33.477Z,18
2016-07-16T09:55:50.651Z,18
2016-07-16T09:56:10.504Z,18
2016-07-16T09:56:27.576Z,18
2016-07-16T09:56:42.805Z,18
2016-07-16T09:56:57.715Z,18
2016-07-16T09:57:14.764Z,18
2016-07-16T09:57:34.642Z,18
2016-07-16T09:57:48.610Z,18
2016-07-16T09:58:02.802Z,18
2016-07-16T09:58:19.861Z,18
2016-07-16T09:58:39.810Z,18
2016-07-16T09:58:56.780Z,18
2016-07-16T09:59:10.927Z,18
2016-07-16T09:59:22.334Z,18
2016-07-16T09:59:36.553Z,18
2016-07-16T09:59:56.399Z,18
2016-07-16T10:00:10.815Z,18
2016-07-16T10:00:27.794Z,18
2016-07-16T10:00:44.731Z,18
2016-07-16T10:01:01.615Z,18
2016-07-16T10:01:21.385Z,18
2016-07-16T10:01:44.006Z,18
2016-07-16T10:02:01.049Z,18
2016-07-16T10:02:17.925Z,18
2016-07-16T10:02:40.956Z,18
2016-07-16T10:03:00.665Z,18
2016-07-16T10:03:17.641Z,18
2016-07-16T10:03:34.579Z,18
2016-07-16T10:03:49.269Z,18
2016-07-16T10:04:06.536Z,18
2016-07-16T10:04:30.158Z,18
2016-07-16T10:04:48.310Z,18
2016-07-16T10:05:08.348Z,18
2016-07-16T10:05:25.656Z,18
2016-07-16T10:05:45.730Z,18
2016-07-16T10:05:57.023Z,18
2016-07-16T10:06:08.543Z,18
2016-07-16T10:06:19.807Z,18
2016-07-16T10:06:36.879Z,18
2016-07-16T10:06:55.391Z,18
2016-07-16T10:07:14.123Z,18
2016-07-16T10:07:38.761Z,18
2016-07-16T10:08:03.471Z,18
2016-07-16T10:08:24.763Z,19
2016-07-16T10:08:44.191Z,19
2016-07-16T10:08:58.435Z,19
2016-07-16T10:09:15.493Z,19
2016-07-16T10:09:38.242Z,19
2016-07-16T10:09:59.541Z,19
2016-07-16T10:10:19.467Z,19
2016-07-16T10:10:39.551Z,19
2016-07-16T10:10:53.561Z,19
2016-07-16T10:11:10.459Z,19
2016-07-16T10:11:27.209Z,19
2016-07-16T10:11:38.488Z,19
2016-07-16T10:11:55.647Z,19
2016-07-16T10:12:15.725Z,19
2016-07-16T10:12:33.039Z,19
2016-07-16T10:12:54.344Z,19
2016-07-16T10:13:11.411Z,19
2016-07-16T10:13:28.453Z,19
2016-07-16T10:13:45.595Z,19
2016-07-16T10:14:03.366Z,19
2016-07-16T10:14:20.585Z,19
2016-07-16T10:14:37.839Z,19
2016-07-16T10:14:56.095Z,19
2016-07-16T10:15:19.115Z,19
2016-07-16T10:15:33.209Z,19
2016-07-16T10:15:50.460Z,19
2016-07-16T10:16:07.451Z,19
2016-07-16T10:16:27.721Z,19
2016-07-16T10:16:45.545Z,19
2016-07-16T10:17:05.490Z,19
2016-07-16T10:17:28.597Z,19
2016-07-16T10:17:42.877Z,19
2016-07-16T10:18:03.129Z,19
2016-07-16T10:18:23.071Z,19
2016-07-16T10:18:43.490Z,19
2016-07-16T10:19:04.255Z,19
2016-07-16T10:19:25.160Z,19
2016-07-16T10:19:41.884Z,19
2016-07-16T10:19:55.975Z,19
2016-07-16T10:20:12.979Z,19
2016-07-16T10:20:32.814Z,19
2016-07-16T10:20:49.717Z,19
2016-07-16T10:21:01.071Z,19
2016-07-16T10:21:18.405Z,19
2016-07-16T10:21:35.359Z,19
2016-07-16T10:21:46.994Z,19
2016-07-16T10:22:04.037Z,19
2016-07-16T10:22:15.337Z,19
2016-07-16T10:22:32.444Z,19
2016-07-16T10:22:54.895Z,19
2016-07-16T10:23:09.013Z,19
2016-07-16T10:23:32.356Z,19
2016-07-16T10:23:46.511Z,19
2016-07-16T10:24:03.583Z,19
2016-07-16T10:24:23.602Z,19
2016-07-16T10:24:40.700Z,19
2016-07-16T10:24:55.049Z,19
2016-07-16T10:25:13.532Z,19
2016-07-16T10:25:27.846Z,19
2016-07-16T10:25:44.770Z,19
2016-07-16T10:26:05.374Z,19
2016-07-16T10:26:28.419Z,19
2016-07-16T10:26:45.408Z,19
2016-07-16T10:26:59.558Z,19
2016-07-16T10:27:13.433Z,19
2016-07-16T10:27:27.605Z,19
2016-07-16T10:27:47.352Z,19
2016-07-16T10:28:06.921Z,19
2016-07-16T10:28:20.793Z,19
2016-07-16T10:28:37.520Z,19
2016-07-16T10:28:51.359Z,19
2016-07-16T10:29:06.412Z,19
2016-07-16T10:55:47.258Z,19
2016-07-16T10:56:04.333Z,19
2016-07-16T10:56:21.334Z,19
2016-07-16T10:56:35.276Z,19
2016-07-16T10:56:56.301Z,19
2016-07-16T10:57:16.231Z,19
2016-07-16T10:57:34.041Z,19
2016-07-16T10:57:46.806Z,19
2016-07-16T10:58:02.211Z,19
2016-07-16T10:58:16.837Z,19
2016-07-16T10:58:35.782Z,19
2016-07-16T10:58:54.426Z,20
2016-07-16T10:59:10.269Z,20
2016-07-16T10:59:27.533Z,20
2016-07-16T10:59:47.814Z,20
2016-07-16T11:00:12.205Z,20
2016-07-16T11:00:29.280Z,19
2016-07-16T11:00:43.590Z,19
2016-07-16T11:00:58.009Z,19
2016-07-16T11:01:18.236Z,19
2016-07-16T11:01:35.286Z,19
2016-07-16T11:01:52.253Z,19
2016-07-16T11:02:12.176Z,19
2016-07-16T11:02:26.236Z,20
2016-07-16T11:02:43.917Z,20
2016-07-16T11:03:01.393Z,20
2016-07-16T11:03:15.510Z,20
2016-07-16T11:03:32.559Z,20
2016-07-16T11:03:52.825Z,20
2016-07-16T11:04:07.655Z,20
2016-07-16T11:04:31.664Z,19
2016-07-16T11:04:49.059Z,20
2016-07-16T11:05:06.057Z,20
2016-07-16T11:05:25.876Z,19
2016-07-16T11:05:45.965Z,19
2016-07-16T11:06:03.373Z,20
2016-07-16T11:06:27.833Z,20
2016-07-16T11:06:46.388Z,20
2016-07-16T11:07:02.971Z,20
2016-07-16T11:07:23.837Z,20
2016-07-16T11:07:48.701Z,20
2016-07-16T11:08:12.451Z,20
2016-07-16T11:08:23.441Z,20
2016-07-16T11:08:43.310Z,20
2016-07-16T11:09:01.472Z,20
2016-07-16T11:09:19.245Z,20
2016-07-16T11:09:41.114Z,20
2016-07-16T11:09:58.128Z,20
2016-07-16T11:10:15.131Z,20
2016-07-16T11:10:31.783Z,20
2016-07-16T11:10:52.166Z,20
2016-07-16T11:11:09.498Z,20
2016-07-16T11:11:29.351Z,20
2016-07-16T11:11:49.335Z,20
2016-07-16T11:12:06.345Z,20
2016-07-16T11:12:26.327Z,20
2016-07-16T11:12:49.104Z,20
2016-07-16T11:13:06.840Z,20
2016-07-16T11:13:29.895Z,20
2016-07-16T11:13:45.383Z,20
2016-07-16T11:14:02.420Z,20
2016-07-16T11:14:25.319Z,20
2016-07-16T11:14:39.264Z,20
2016-07-16T11:14:53.296Z,20
2016-07-16T11:15:10.424Z,20
2016-07-16T11:15:32.356Z,20
2016-07-16T11:15:49.729Z,20
2016-07-16T11:16:08.231Z,20
2016-07-16T11:16:28.035Z,20
2016-07-16T11:16:43.886Z,20
2016-07-16T11:16:59.969Z,20
2016-07-16T11:17:17.068Z,20
2016-07-16T11:17:40.784Z,20
2016-07-16T11:18:01.105Z,20
2016-07-16T11:18:16.081Z,20
2016-07-16T11:18:36.604Z,20
2016-07-16T11:18:57.425Z,20
2016-07-16T11:19:14.464Z,20
2016-07-16T11:19:28.646Z,20
2016-07-16T11:19:45.956Z,20
2016-07-16T11:20:03.422Z,20
2016-07-16T11:20:22.469Z,20
2016-07-16T11:20:41.758Z,19
2016-07-16T11:20:57.114Z,20
2016-07-16T11:21:12.248Z,19
2016-07-16T11:21:35.259Z,19
2016-07-16T11:21:47.137Z,19
2016-07-16T11:22:01.975Z,19
2016-07-16T11:22:17.338Z,19
2016-07-16T11:22:34.491Z,20
2016-07-16T11:22:48.788Z,20
2016-07-16T11:23:03.496Z,19
2016-07-16T11:23:23.297Z,20
2016-07-16T11:23:40.493Z,20
2016-07-16T11:23:57.451Z,20
2016-07-16T11:24:11.515Z,20
2016-07-16T11:24:25.598Z,20
2016-07-16T11:24:42.577Z,20
2016-07-16T11:24:59.652Z,20
2016-07-16T11:25:23.055Z,20
2016-07-16T11:25:35.284Z,20
2016-07-16T11:25:50.107Z,20
2016-07-16T11:26:07.020Z,20
2016-07-16T11:26:28.029Z,20
2016-07-16T11:26:48.261Z,20
2016-07-16T11:27:08.411Z,20
2016-07-16T11:27:25.441Z,20
2016-07-16T11:27:48.209Z,20
2016-07-16T11:27:59.249Z,20
2016-07-16T11:28:16.314Z,20
2016-07-16T11:28:27.639Z,20
2016-07-16T11:28:44.340Z,20
2016-07-16T11:28:55.396Z,20
2016-07-16T11:29:12.365Z,20
2016-07-16T11:29:30.462Z,20
2016-07-16T11:30:01.602Z,20
2016-07-16T11:30:16.194Z,20
2016-07-16T11:30:33.045Z,20
2016-07-16T11:30:48.705Z,20
2016-07-16T11:31:06.893Z,20
2016-07-16T11:31:29.453Z,20
2016-07-16T11:31:49.624Z,20
2016-07-16T11:32:07.211Z,20
2016-07-16T11:32:28.379Z,20
2016-07-16T11:32:49.093Z,20
2016-07-16T11:33:05.048Z,20
2016-07-16T11:33:21.036Z,20
2016-07-16T11:33:40.981Z,20
2016-07-16T11:33:56.951Z,20
2016-07-16T11:34:15.084Z,20
2016-07-16T11:34:30.405Z,20
2016-07-16T11:34:48.015Z,20
2016-07-16T11:35:05.405Z,20
2016-07-16T11:35:19.199Z,20
2016-07-16T11:35:42.283Z,20
2016-07-16T11:36:08.968Z,20
2016-07-16T11:36:20.036Z,20
2016-07-16T11:36:39.810Z,20
2016-07-16T11:36:59.693Z,20
2016-07-16T11:37:16.373Z,20
2016-07-16T11:37:30.289Z,20
2016-07-16T11:37:50.420Z,20
2016-07-16T11:38:07.102Z,20
2016-07-16T11:38:29.653Z,20
2016-07-16T11:38:46.573Z,20
2016-07-16T11:39:00.676Z,20
2016-07-16T11:39:20.977Z,20
2016-07-16T11:39:35.009Z,20
2016-07-16T11:39:50.450Z,20
2016-07-16T11:40:10.177Z,20
2016-07-16T11:40:24.289Z,20
2016-07-16T11:40:35.188Z,20
2016-07-16T11:40:52.770Z,20
2016-07-16T11:41:07.168Z,20
2016-07-16T11:41:21.211Z,20
2016-07-16T11:41:38.449Z,20
2016-07-16T11:42:01.710Z,20
2016-07-16T11:42:21.621Z,20
2016-07-16T11:42:41.369Z,20
2016-07-16T11:43:01.598Z,20
2016-07-16T11:43:17.053Z,20
2016-07-16T11:43:39.380Z,20
2016-07-16T11:43:55.607Z,20
2016-07-16T11:44:12.462Z,20
2016-07-16T11:44:32.283Z,20
2016-07-16T11:44:51.127Z,20
2016-07-16T11:45:09.503Z,20
2016-07-16T11:45:31.840Z,20
2016-07-16T11:45:52.731Z,20
2016-07-16T11:46:06.516Z,20
2016-07-16T11:46:29.154Z,20
2016-07-16T11:46:43.172Z,20
2016-07-16T11:47:05.812Z,20
2016-07-16T11:47:22.823Z,20
2016-07-16T11:47:45.015Z,20
2016-07-16T11:48:11.988Z,20
2016-07-16T11:48:29.077Z,20
2016-07-16T11:48:47.489Z,20
2016-07-16T11:49:08.321Z,20
2016-07-16T11:49:29.143Z,20
2016-07-16T11:49:48.036Z,20
2016-07-16T11:50:11.926Z,20
2016-07-16T11:50:29.898Z,20
2016-07-16T11:50:49.525Z,20
2016-07-16T11:51:14.972Z,20
2016-07-16T11:51:31.912Z,20
2016-07-16T11:51:48.894Z,20
2016-07-16T11:52:09.581Z,20
2016-07-16T11:52:32.427Z,20
2016-07-16T11:52:49.592Z,20
2016-07-16T11:53:03.441Z,20
2016-07-16T11:53:20.253Z,20
2016-07-16T11:53:34.400Z,20
2016-07-16T11:53:51.172Z,20
2016-07-16T11:54:02.578Z,20
2016-07-16T11:54:16.401Z,20
2016-07-16T11:54:30.545Z,20
2016-07-16T11:54:51.031Z,20
2016-07-16T11:55:05.095Z,20
2016-07-16T11:55:24.917Z,20
2016-07-16T11:55:41.782Z,20
2016-07-16T11:56:15.903Z,20
2016-07-16T11:56:44.912Z,20
2016-07-16T11:57:02.677Z,20
2016-07-16T11:57:19.000Z,20
2016-07-16T11:57:42.321Z,20
2016-07-16T11:58:20.203Z,20
2016-07-16T11:58:40.581Z,20
2016-07-16T11:59:06.276Z,20
2016-07-16T11:59:31.400Z,20
2016-07-16T11:59:54.645Z,20
2016-07-16T12:00:57.723Z,20
2016-07-16T12:01:53.679Z,20
2016-07-16T12:02:20.569Z,20
2016-07-16T12:02:48.286Z,20
2016-07-16T12:03:22.015Z,20
2016-07-16T12:03:43.990Z,20
2016-07-16T12:04:13.675Z,20
2016-07-16T12:04:41.707Z,20
2016-07-16T12:05:06.923Z,20
2016-07-16T12:05:32.943Z,20
2016-07-16T12:06:01.518Z,20
2016-07-16T12:06:27.783Z,20
2016-07-16T12:06:50.696Z,20
2016-07-16T12:07:18.066Z,20
2016-07-16T12:07:43.068Z,20
2016-07-16T12:08:01.067Z,20
2016-07-16T12:08:24.264Z,20
2016-07-16T12:08:40.514Z,20
2016-07-16T12:09:03.414Z,20
2016-07-16T12:09:36.747Z,20
2016-07-16T12:10:06.222Z,20
2016-07-16T12:10:34.492Z,20
2016-07-16T12:10:55.918Z,20
2016-07-16T12:11:17.772Z,20
2016-07-16T12:11:36.939Z,20
2016-07-16T12:11:56.145Z,20
2016-07-16T12:12:13.193Z,20
2016-07-16T12:12:32.421Z,20
2016-07-16T12:12:57.097Z,20
2016-07-16T12:13:19.428Z,20
2016-07-16T12:13:47.169Z,20
2016-07-16T12:14:10.612Z,20
2016-07-16T12:14:33.592Z,20
2016-07-16T12:14:49.272Z,20
2016-07-16T12:15:12.280Z,20
2016-07-16T12:15:30.776Z,20
2016-07-16T12:15:52.612Z,20
2016-07-16T12:16:09.099Z,20
2016-07-16T12:16:27.574Z,20
2016-07-16T12:16:52.446Z,20
2016-07-16T12:17:17.925Z,20
2016-07-16T12:17:42.309Z,20
2016-07-16T12:18:05.387Z,20
2016-07-16T12:18:33.782Z,20
2016-07-16T12:18:58.434Z,20
2016-07-16T12:19:23.497Z,20
2016-07-16T12:19:45.583Z,20
2016-07-16T12:20:05.633Z,20
2016-07-16T16:56:58.333Z,0
2016-07-16T16:57:18.007Z,24
2016-07-16T16:57:36.065Z,24
2016-07-16T16:58:03.348Z,24
2016-07-16T16:58:24.679Z,24
2016-07-16T16:58:47.895Z,24
2016-07-16T16:59:12.062Z,24
2016-07-16T16:59:37.561Z,24
2016-07-16T17:00:06.347Z,24
2016-07-16T17:00:36.961Z,24
2016-07-16T17:01:05.525Z,24
2016-07-16T17:01:23.496Z,24
2016-07-16T17:01:47.097Z,24
2016-07-16T17:01:59.079Z,24
2016-07-16T17:02:19.782Z,24
2016-07-16T17:02:53.250Z,24
2016-07-16T17:03:12.537Z,24
2016-07-16T17:03:31.361Z,24
2016-07-16T17:03:46.671Z,24
2016-07-16T17:04:04.350Z,24
2016-07-16T17:04:28.692Z,24
2016-07-16T17:04:49.608Z,24
2016-07-16T17:05:33.741Z,24
2016-07-16T17:05:45.278Z,23
2016-07-16T17:06:06.255Z,24
2016-07-16T17:06:21.703Z,23
2016-07-16T17:06:45.089Z,23
2016-07-16T17:06:59.669Z,23
2016-07-16T17:07:22.847Z,23
2016-07-16T17:07:37.553Z,23
2016-07-16T17:08:31.822Z,23
2016-07-16T17:08:50.997Z,23
2016-07-16T17:09:14.825Z,23
2016-07-16T17:09:32.702Z,23
2016-07-16T17:09:47.941Z,23
2016-07-16T17:10:14.696Z,23
2016-07-16T17:10:35.381Z,23
2016-07-16T17:10:56.386Z,23
2016-07-16T17:11:17.261Z,23
2016-07-16T17:11:29.643Z,23
2016-07-16T17:12:29.893Z,23
2016-07-16T17:12:51.364Z,23
2016-07-16T17:13:13.299Z,23
2016-07-16T17:13:34.018Z,23
2016-07-16T17:13:56.592Z,23
2016-07-16T17:14:14.828Z,23
2016-07-16T17:14:39.812Z,23
2016-07-16T17:15:02.991Z,23
2016-07-16T17:15:18.303Z,23
2016-07-16T17:15:48.626Z,23
2016-07-16T17:16:09.980Z,23
2016-07-16T17:16:31.172Z,23
2016-07-16T17:17:01.058Z,23
2016-07-16T17:17:31.912Z,23
2016-07-16T17:17:54.478Z,23
2016-07-16T17:18:09.726Z,23
2016-07-16T17:18:26.053Z,23
2016-07-16T17:18:50.349Z,23
2016-07-16T17:19:31.409Z,23
2016-07-16T17:19:52.835Z,23
2016-07-16T17:20:08.667Z,23
2016-07-16T17:20:31.730Z,23
2016-07-16T17:20:51.157Z,23
2016-07-16T17:21:12.175Z,23
2016-07-16T17:21:31.025Z,23
2016-07-16T17:21:49.106Z,23
2016-07-16T17:22:04.267Z,23
2016-07-16T17:22:27.215Z,23
2016-07-16T17:22:44.610Z,23
2016-07-16T17:23:02.776Z,23
2016-07-16T17:23:18.251Z,23
2016-07-16T17:23:33.402Z,23
2016-07-16T17:23:56.269Z,23
2016-07-16T17:24:37.898Z,23
2016-07-16T17:25:10.060Z,23
2016-07-16T17:25:54.625Z,23
2016-07-16T17:26:44.992Z,23
2016-07-16T17:27:16.786Z,23
2016-07-16T17:27:48.524Z,23
2016-07-16T17:28:20.582Z,23
2016-07-16T17:28:49.836Z,23
2016-07-16T17:29:14.278Z,23
2016-07-16T17:29:49.599Z,23
2016-07-16T17:30:17.423Z,23
2016-07-16T17:30:33.978Z,23
2016-07-16T17:31:09.711Z,23
2016-07-16T17:31:47.622Z,23
2016-07-16T17:32:21.539Z,23
2016-07-16T17:32:50.655Z,23
2016-07-16T17:33:16.415Z,23
2016-07-16T17:34:10.130Z,23
